Time;durP1;ratioP1;P1;durP2;ratioP2;P2;SDS_P1;SDS_P2;PMS_P1;PMS_P2;Temp;Humidity;BMP_temperature;BMP_pressure;BME280_temperature;BME280_humidity;BME280_pressure;Samples;Min_cycle;Max_cycle;Signal;HPM_P1;HPM_P2
2023/06/22 00:02:15;;;;;;;12.73;8.33;;;21.10;99.90;;;;;;5131065;27;20425;-70
2023/06/22 00:04:41;;;;;;;15.93;8.60;;;21.10;99.90;;;;;;5131022;27;20418;-70
2023/06/22 00:07:06;;;;;;;13.13;8.20;;;21.10;99.90;;;;;;5149533;27;20639;-70
2023/06/22 00:09:32;;;;;;;12.17;9.17;;;21.00;99.90;;;;;;5149419;27;20604;-69
2023/06/22 00:11:58;;;;;;;13.70;8.07;;;20.90;99.90;;;;;;5149476;27;20214;-69
2023/06/22 00:14:23;;;;;;;13.63;9.13;;;20.90;99.90;;;;;;5149536;27;21177;-69
2023/06/22 00:16:52;;;;;;;11.23;8.47;;;20.80;99.90;;;;;;5149379;27;20181;-69
2023/06/22 00:19:19;;;;;;;13.73;8.67;;;20.80;99.90;;;;;;5149462;27;20204;-70
2023/06/22 00:21:46;;;;;;;16.50;8.83;;;20.60;99.90;;;;;;5131966;27;20444;-69
2023/06/22 00:24:12;;;;;;;14.47;9.00;;;20.40;99.90;;;;;;5153317;27;20434;-69
2023/06/22 00:26:38;;;;;;;14.40;9.10;;;20.40;99.90;;;;;;5134383;27;21044;-69
2023/06/22 00:29:04;;;;;;;14.07;7.83;;;20.30;99.90;;;;;;5153159;27;20473;-69
2023/06/22 00:31:29;;;;;;;12.70;8.83;;;20.30;99.90;;;;;;5134398;27;20184;-69
2023/06/22 00:33:55;;;;;;;17.27;9.13;;;20.30;99.90;;;;;;5153233;27;20749;-69
2023/06/22 00:36:20;;;;;;;15.40;9.40;;;20.20;99.90;;;;;;5153061;27;20271;-69
2023/06/22 00:38:46;;;;;;;13.83;8.47;;;20.10;99.90;;;;;;5152873;27;20666;-69
2023/06/22 00:41:12;;;;;;;12.23;7.93;;;20.20;99.90;;;;;;5134018;27;20176;-69
2023/06/22 00:43:37;;;;;;;19.93;9.40;;;20.20;99.90;;;;;;5117268;27;20691;-69
2023/06/22 00:46:03;;;;;;;14.70;8.47;;;20.20;99.90;;;;;;5134415;27;20245;-69
2023/06/22 00:48:29;;;;;;;12.90;7.47;;;20.20;99.90;;;;;;5153052;27;20176;-69
2023/06/22 00:50:55;;;;;;;12.73;8.57;;;20.20;99.90;;;;;;5134577;27;20565;-70
2023/06/22 00:53:21;;;;;;;14.70;8.20;;;20.00;99.90;;;;;;5134795;27;20208;-69
2023/06/22 00:55:51;;;;;;;18.60;8.70;;;19.90;99.90;;;;;;5153399;27;20447;-70
2023/06/22 00:58:21;;;;;;;14.40;8.07;;;19.80;99.90;;;;;;5134377;27;20191;-69
2023/06/22 01:00:47;;;;;;;15.40;8.23;;;19.70;99.90;;;;;;5153297;27;20501;-69
2023/06/22 01:03:13;;;;;;;11.43;8.60;;;19.60;99.90;;;;;;5134484;27;20424;-69
2023/06/22 01:05:40;;;;;;;12.60;8.37;;;19.40;99.90;;;;;;5153150;27;20413;-69
2023/06/22 01:08:39;;;;;;;12.27;8.77;;;19.40;99.90;;;;;;5153210;27;20260;-69
2023/06/22 01:11:09;;;;;;;14.23;8.30;;;19.50;99.90;;;;;;5134410;27;20425;-70
2023/06/22 01:13:59;;;;;;;17.83;9.37;;;19.60;99.90;;;;;;5152828;27;20469;-69
2023/06/22 01:16:28;;;;;;;11.83;9.00;;;19.50;99.90;;;;;;5152114;27;20437;-69
2023/06/22 01:18:57;;;;;;;14.50;8.60;;;19.40;99.90;;;;;;5133357;27;20485;-69
2023/06/22 01:21:27;;;;;;;13.13;8.70;;;19.50;99.90;;;;;;5152149;27;20422;-69
2023/06/22 01:24:16;;;;;;;14.93;8.43;;;19.50;99.90;;;;;;5134064;27;20536;-69
2023/06/22 01:27:00;;;;;;;16.27;8.90;;;19.50;99.90;;;;;;5151986;27;20437;-69
2023/06/22 01:29:27;;;;;;;13.70;8.37;;;19.40;99.90;;;;;;5152083;27;20425;-70
2023/06/22 01:31:56;;;;;;;12.00;8.73;;;19.30;99.90;;;;;;5151773;27;20496;-70
2023/06/22 01:34:22;;;;;;;12.50;8.60;;;19.10;99.90;;;;;;5150705;27;20432;-70
2023/06/22 01:36:50;;;;;;;11.77;8.40;;;19.20;99.90;;;;;;5151829;27;20409;-69
2023/06/22 01:39:16;;;;;;;11.23;8.17;;;19.20;99.90;;;;;;5132887;27;20439;-70
2023/06/22 01:41:43;;;;;;;20.10;8.73;;;19.10;99.90;;;;;;5132917;27;20420;-69
2023/06/22 01:44:10;;;;;;;13.40;8.33;;;19.00;99.90;;;;;;5151944;27;20864;-69
2023/06/22 01:46:37;;;;;;;14.40;7.73;;;18.90;99.90;;;;;;5133101;27;20417;-70
2023/06/22 01:49:03;;;;;;;16.50;7.83;;;19.00;99.90;;;;;;5133159;27;20816;-70
2023/06/22 01:51:30;;;;;;;11.00;7.87;;;19.00;99.90;;;;;;5132613;27;20430;-69
2023/06/22 01:53:55;;;;;;;13.30;9.00;;;18.90;99.90;;;;;;5151174;27;20916;-69
2023/06/22 01:56:21;;;;;;;17.10;9.07;;;18.80;99.90;;;;;;5132550;27;20507;-70
2023/06/22 01:58:55;;;;;;;13.90;9.37;;;18.60;99.90;;;;;;5151475;27;20207;-69
2023/06/22 02:01:27;;;;;;;15.33;9.30;;;18.50;99.90;;;;;;5151260;27;20580;-69
2023/06/22 02:04:18;;;;;;;8.80;7.67;;;18.50;99.90;;;;;;5151485;27;20426;-69
2023/06/22 02:06:46;;;;;;;14.73;8.20;;;18.70;99.90;;;;;;5133521;27;20413;-70
2023/06/22 02:09:19;;;;;;;10.10;8.00;;;18.70;99.90;;;;;;5151003;27;20498;-70
2023/06/22 02:11:46;;;;;;;14.57;8.53;;;18.80;99.90;;;;;;5150990;27;20905;-70
2023/06/22 02:14:13;;;;;;;17.70;9.47;;;18.80;99.90;;;;;;5132661;27;20416;-70
2023/06/22 02:16:40;;;;;;;13.37;8.60;;;18.80;99.90;;;;;;5132266;27;20427;-70
2023/06/22 02:19:06;;;;;;;13.87;8.17;;;18.70;99.90;;;;;;5150936;27;20437;-70
2023/06/22 02:21:32;;;;;;;13.87;8.83;;;18.70;99.90;;;;;;5150794;27;21073;-70
2023/06/22 02:23:58;;;;;;;12.30;8.70;;;18.70;99.90;;;;;;5150889;27;20211;-70
2023/06/22 02:26:26;;;;;;;15.90;9.17;;;18.70;99.90;;;;;;5150709;27;20437;-69
2023/06/22 02:28:52;;;;;;;14.47;8.73;;;18.70;99.90;;;;;;5150782;27;20953;-70
2023/06/22 02:31:18;;;;;;;16.83;10.20;;;18.60;99.90;;;;;;5150662;27;20911;-70
2023/06/22 02:33:44;;;;;;;18.40;9.93;;;18.60;99.90;;;;;;5150562;27;20457;-70
2023/06/22 02:36:12;;;;;;;13.33;9.47;;;18.60;99.90;;;;;;5131989;27;20429;-70
2023/06/22 02:38:45;;;;;;;13.63;9.60;;;18.70;99.90;;;;;;5150640;27;20452;-70
2023/06/22 02:41:13;;;;;;;18.27;10.90;;;18.70;99.90;;;;;;5131719;27;20426;-70
2023/06/22 02:43:38;;;;;;;15.90;10.63;;;18.60;99.90;;;;;;5150843;27;20453;-70
2023/06/22 02:46:04;;;;;;;18.53;11.10;;;18.60;99.90;;;;;;5150430;27;20472;-70
2023/06/22 02:48:29;;;;;;;21.40;10.40;;;18.60;99.90;;;;;;5150759;27;20184;-69
2023/06/22 02:50:55;;;;;;;16.60;10.00;;;18.50;99.90;;;;;;5132435;27;20191;-69
2023/06/22 02:53:20;;;;;;;14.23;10.27;;;18.40;99.90;;;;;;5151012;27;20218;-69
2023/06/22 02:55:46;;;;;;;11.37;8.47;;;18.20;99.90;;;;;;5151011;27;20228;-69
2023/06/22 02:58:12;;;;;;;13.80;9.87;;;18.10;99.90;;;;;;5132559;27;20679;-69
2023/06/22 03:00:39;;;;;;;14.20;10.40;;;18.20;99.90;;;;;;5150949;27;20207;-68
2023/06/22 03:03:04;;;;;;;15.43;9.47;;;18.20;99.90;;;;;;5151060;27;20264;-69
2023/06/22 03:05:30;;;;;;;16.10;10.00;;;18.10;99.90;;;;;;5150967;27;20410;-69
2023/06/22 03:07:55;;;;;;;17.10;10.17;;;18.20;99.90;;;;;;5131971;27;20235;-69
2023/06/22 03:10:21;;;;;;;16.10;9.90;;;18.30;99.90;;;;;;5131325;27;20203;-69
2023/06/22 03:12:47;;;;;;;14.30;10.37;;;18.30;99.90;;;;;;5131187;27;20580;-69
2023/06/22 03:15:13;;;;;;;16.20;10.00;;;18.20;99.90;;;;;;5149917;27;20317;-69
2023/06/22 03:17:39;;;;;;;16.67;9.27;;;18.20;99.90;;;;;;5150577;27;20188;-69
2023/06/22 03:20:10;;;;;;;14.13;9.67;;;18.20;99.90;;;;;;5150393;27;20438;-69
2023/06/22 03:22:37;;;;;;;14.07;9.50;;;18.10;99.90;;;;;;5150284;27;20418;-69
2023/06/22 03:25:03;;;;;;;13.70;9.20;;;18.20;99.90;;;;;;5149981;27;20512;-69
2023/06/22 03:27:28;;;;;;;16.83;9.27;;;18.20;99.90;;;;;;5149684;27;20544;-69
2023/06/22 03:29:54;;;;;;;20.80;9.77;;;18.20;99.90;;;;;;5130975;27;20449;-70
2023/06/22 03:32:19;;;;;;;19.50;9.43;;;18.10;99.90;;;;;;5149804;27;20222;-69
2023/06/22 03:34:48;;;;;;;15.33;10.50;;;18.10;99.90;;;;;;5131115;27;20187;-69
2023/06/22 03:37:14;;;;;;;17.50;10.07;;;17.90;99.90;;;;;;5149995;27;20291;-69
2023/06/22 03:39:40;;;;;;;18.20;9.30;;;18.00;99.90;;;;;;5149579;27;20461;-69
2023/06/22 03:42:06;;;;;;;14.90;9.50;;;18.10;99.90;;;;;;5149699;27;20968;-70
2023/06/22 03:44:32;;;;;;;24.90;11.30;;;18.10;99.90;;;;;;5149690;27;20499;-69
2023/06/22 03:46:57;;;;;;;16.10;10.07;;;18.20;99.90;;;;;;5131139;27;20196;-69
2023/06/22 03:49:23;;;;;;;20.20;9.07;;;18.20;99.90;;;;;;5149435;27;20311;-69
2023/06/22 03:51:48;;;;;;;12.63;9.40;;;18.20;99.90;;;;;;5149669;27;20188;-70
2023/06/22 03:54:14;;;;;;;14.40;9.10;;;18.30;99.90;;;;;;5130943;27;20768;-69
2023/06/22 03:56:39;;;;;;;14.83;8.83;;;18.20;99.90;;;;;;5131231;27;20654;-70
2023/06/22 03:59:05;;;;;;;11.10;9.43;;;18.20;99.90;;;;;;5153234;27;20250;-69
2023/06/22 04:01:31;;;;;;;17.20;9.10;;;18.20;99.90;;;;;;5134785;27;20184;-69
2023/06/22 04:03:56;;;;;;;12.17;8.03;;;18.10;99.90;;;;;;5153170;27;20188;-70
2023/06/22 04:06:22;;;;;;;14.57;8.80;;;18.10;99.90;;;;;;5153255;27;20183;-69
2023/06/22 04:08:50;;;;;;;13.07;9.10;;;18.20;99.90;;;;;;5153236;27;20505;-69
2023/06/22 04:11:17;;;;;;;13.43;9.13;;;18.20;99.90;;;;;;5153172;27;20426;-70
2023/06/22 04:13:43;;;;;;;10.77;8.23;;;18.20;99.90;;;;;;5153056;27;21070;-69
2023/06/22 04:16:08;;;;;;;13.03;8.10;;;18.10;99.90;;;;;;5153377;27;20478;-69
2023/06/22 04:18:34;;;;;;;18.73;7.93;;;18.20;99.90;;;;;;5134160;27;20208;-69
2023/06/22 04:20:59;;;;;;;14.70;8.20;;;18.30;99.90;;;;;;5134204;27;20664;-70
2023/06/22 04:23:25;;;;;;;10.27;7.33;;;18.50;99.90;;;;;;5134542;27;20178;-77
2023/06/22 04:25:51;;;;;;;10.17;7.30;;;18.60;99.90;;;;;;5153244;27;20186;-77
2023/06/22 04:28:17;;;;;;;11.63;7.03;;;18.70;99.90;;;;;;5153423;27;20975;-77
2023/06/22 04:30:46;;;;;;;12.10;7.20;;;18.80;99.90;;;;;;5153385;27;20441;-77
2023/06/22 04:33:14;;;;;;;13.00;8.00;;;18.90;99.90;;;;;;5153145;27;20340;-77
2023/06/22 04:35:42;;;;;;;12.90;7.30;;;19.00;99.90;;;;;;5153375;27;20824;-77
2023/06/22 04:38:08;;;;;;;12.20;7.10;;;19.10;99.90;;;;;;5134922;27;20421;-77
2023/06/22 04:40:34;;;;;;;15.17;7.60;;;19.20;99.90;;;;;;5152589;27;20437;-77
2023/06/22 04:43:02;;;;;;;17.40;7.07;;;19.20;99.90;;;;;;5116707;27;20224;-76
2023/06/22 04:45:29;;;;;;;10.90;7.77;;;19.30;99.90;;;;;;5133929;27;20289;-77
2023/06/22 04:47:54;;;;;;;13.37;8.33;;;19.30;99.90;;;;;;5152589;27;20409;-77
2023/06/22 04:50:21;;;;;;;10.73;8.00;;;19.30;99.90;;;;;;5152551;27;20438;-77
2023/06/22 04:52:47;;;;;;;11.13;7.80;;;19.30;99.90;;;;;;5152073;27;20212;-77
2023/06/22 04:55:18;;;;;;;10.57;7.77;;;19.50;99.90;;;;;;5152528;27;20474;-77
2023/06/22 04:57:49;;;;;;;12.67;8.57;;;19.60;99.90;;;;;;5152280;27;20934;-77
2023/06/22 05:00:22;;;;;;;12.83;8.67;;;19.80;99.90;;;;;;5152027;27;20436;-77
2023/06/22 05:02:49;;;;;;;15.10;9.07;;;19.80;99.90;;;;;;5152686;27;20940;-77
2023/06/22 05:05:15;;;;;;;15.00;7.20;;;19.90;99.90;;;;;;5152675;27;20509;-77
2023/06/22 05:07:47;;;;;;;10.77;7.97;;;20.10;99.90;;;;;;5133724;27;21140;-77
2023/06/22 05:10:13;;;;;;;17.63;8.73;;;20.20;99.90;;;;;;5134031;27;21114;-76
2023/06/22 05:12:39;;;;;;;19.07;9.00;;;20.40;99.90;;;;;;5133812;27;20473;-77
2023/06/22 05:15:09;;;;;;;21.93;8.77;;;20.50;99.90;;;;;;5133573;27;20276;-77
2023/06/22 05:17:36;;;;;;;11.73;8.07;;;20.60;99.90;;;;;;5152718;27;20416;-77
2023/06/22 05:20:06;;;;;;;12.37;8.90;;;20.60;99.90;;;;;;5153089;27;20433;-77
2023/06/22 05:22:32;;;;;;;12.90;7.80;;;20.70;99.90;;;;;;5133505;27;20453;-76
2023/06/22 05:24:57;;;;;;;14.57;8.73;;;20.80;99.90;;;;;;5152604;27;20999;-76
2023/06/22 05:27:23;;;;;;;18.30;7.43;;;20.90;99.90;;;;;;5152563;27;20434;-76
2023/06/22 05:29:48;;;;;;;14.30;8.40;;;20.90;99.90;;;;;;5135654;27;20996;-77
2023/06/22 05:32:14;;;;;;;19.27;8.80;;;21.00;99.90;;;;;;5135192;27;20222;-77
2023/06/22 05:34:39;;;;;;;11.13;6.97;;;21.10;99.90;;;;;;5133764;27;20215;-76
2023/06/22 05:37:06;;;;;;;19.20;7.87;;;21.20;99.90;;;;;;5133351;27;20181;-76
2023/06/22 05:39:31;;;;;;;11.43;6.70;;;21.20;99.90;;;;;;5133065;27;20634;-76
2023/06/22 05:41:57;;;;;;;11.27;7.77;;;21.40;99.90;;;;;;5152548;27;20467;-77
2023/06/22 05:44:22;;;;;;;14.83;7.43;;;21.40;99.90;;;;;;5135320;27;20177;-77
2023/06/22 05:46:48;;;;;;;14.00;7.67;;;21.60;99.90;;;;;;5122359;27;20210;-78
2023/06/22 05:49:14;;;;;;;12.27;6.90;;;21.60;99.90;;;;;;5137920;27;20208;-77
2023/06/22 05:51:41;;;;;;;12.80;6.90;;;21.70;99.90;;;;;;5154292;27;20180;-77
2023/06/22 05:54:08;;;;;;;11.40;6.70;;;21.70;99.90;;;;;;5154132;27;20911;-77
2023/06/22 05:56:34;;;;;;;15.43;8.03;;;21.80;99.90;;;;;;5153700;27;20908;-77
2023/06/22 05:58:59;;;;;;;15.50;8.30;;;21.80;99.90;;;;;;5134478;27;20450;-76
2023/06/22 06:01:25;;;;;;;16.70;8.20;;;21.90;99.90;;;;;;5134817;27;20184;-76
2023/06/22 06:03:52;;;;;;;14.13;7.87;;;22.00;99.90;;;;;;5132435;27;20193;-78
2023/06/22 06:06:21;;;;;;;10.30;7.80;;;22.10;99.90;;;;;;5151155;27;20446;-76
2023/06/22 06:08:46;;;;;;;13.20;6.60;;;22.20;99.90;;;;;;5152913;27;20444;-77
2023/06/22 06:11:12;;;;;;;11.10;7.80;;;22.40;99.90;;;;;;5152425;27;20478;-77
2023/06/22 06:13:37;;;;;;;12.63;7.87;;;22.50;99.90;;;;;;5153053;27;20208;-77
2023/06/22 06:16:03;;;;;;;18.13;8.03;;;22.50;99.90;;;;;;5153637;27;20185;-77
2023/06/22 06:18:29;;;;;;;16.33;7.83;;;22.60;99.90;;;;;;5132832;27;20237;-77
2023/06/22 06:20:54;;;;;;;13.57;7.73;;;22.70;99.90;;;;;;5151972;27;20177;-77
2023/06/22 06:23:20;;;;;;;17.10;7.30;;;22.80;99.90;;;;;;5134044;27;20225;-77
2023/06/22 06:25:46;;;;;;;18.20;8.40;;;22.80;99.90;;;;;;5152491;27;20201;-77
2023/06/22 06:28:11;;;;;;;10.83;7.03;;;22.90;99.90;;;;;;5133237;27;20198;-77
2023/06/22 06:30:37;;;;;;;11.00;7.40;;;23.10;99.90;;;;;;5149771;27;20244;-76
2023/06/22 06:33:08;;;;;;;12.27;7.37;;;23.30;99.90;;;;;;5131084;27;20217;-76
2023/06/22 06:35:34;;;;;;;22.00;7.80;;;23.50;99.90;;;;;;5115228;27;20208;-76
2023/06/22 06:38:00;;;;;;;10.10;6.90;;;23.60;99.90;;;;;;5130995;27;20495;-76
2023/06/22 06:40:25;;;;;;;16.10;6.83;;;23.70;99.90;;;;;;5149497;27;20820;-77
2023/06/22 06:42:51;;;;;;;10.93;6.70;;;23.70;99.90;;;;;;5149607;27;20906;-77
2023/06/22 06:45:19;;;;;;;14.20;8.00;;;23.80;99.90;;;;;;5097138;27;21058;-77
2023/06/22 06:47:44;;;;;;;11.90;7.17;;;23.80;99.90;;;;;;5149928;27;20186;-77
2023/06/22 06:50:11;;;;;;;10.43;6.30;;;23.90;99.90;;;;;;5132901;27;20457;-77
2023/06/22 06:52:37;;;;;;;9.47;6.47;;;24.00;99.90;;;;;;5151974;27;20213;-76
2023/06/22 06:55:04;;;;;;;11.30;7.10;;;24.20;99.90;;;;;;5151989;27;20413;-77
2023/06/22 06:57:30;;;;;;;9.43;5.60;;;24.30;99.90;;;;;;5152716;27;20951;-77
2023/06/22 06:59:56;;;;;;;9.83;6.93;;;24.40;99.90;;;;;;5116762;27;20536;-77
2023/06/22 07:02:23;;;;;;;18.60;7.67;;;24.60;99.90;;;;;;5134042;27;20663;-77
2023/06/22 07:04:49;;;;;;;15.13;8.27;;;24.60;99.90;;;;;;5152427;27;20425;-76
2023/06/22 07:07:15;;;;;;;11.03;7.63;;;24.70;99.90;;;;;;5131427;27;20535;-76
2023/06/22 07:09:40;;;;;;;13.77;7.40;;;24.80;99.90;;;;;;5131040;27;20577;-77
2023/06/22 07:12:06;;;;;;;11.97;7.10;;;24.90;99.90;;;;;;5149596;27;20482;-77
2023/06/22 07:14:32;;;;;;;11.80;7.10;;;25.00;99.90;;;;;;5130302;27;20649;-76
2023/06/22 07:16:58;;;;;;;11.33;5.63;;;25.00;99.90;;;;;;5149863;27;20418;-77
2023/06/22 07:19:28;;;;;;;10.37;6.50;;;25.10;99.90;;;;;;5130743;27;20532;-76
2023/06/22 07:21:54;;;;;;;10.67;6.13;;;25.20;99.90;;;;;;5130845;27;20180;-76
2023/06/22 07:24:20;;;;;;;15.43;7.67;;;25.30;99.90;;;;;;5114138;27;21283;-76
2023/06/22 07:26:49;;;;;;;12.97;6.47;;;25.40;99.90;;;;;;5149775;27;20437;-76
2023/06/22 07:29:16;;;;;;;11.07;6.93;;;25.40;99.90;;;;;;5150546;27;20473;-77
2023/06/22 07:31:42;;;;;;;12.50;6.90;;;25.40;99.90;;;;;;5154942;27;20435;-78
2023/06/22 07:34:07;;;;;;;10.83;6.17;;;25.50;99.90;;;;;;5120175;27;20576;-78
2023/06/22 07:36:35;;;;;;;12.00;6.70;;;25.50;99.90;;;;;;5136756;27;20653;-77
2023/06/22 07:39:02;;;;;;;10.53;6.43;;;25.60;99.90;;;;;;5153700;27;20204;-76
2023/06/22 07:41:28;;;;;;;9.90;5.80;;;25.60;99.90;;;;;;5135038;27;20422;-76
2023/06/22 07:43:53;;;;;;;17.23;6.77;;;25.70;99.90;;;;;;5134933;27;20424;-76
2023/06/22 07:46:19;;;;;;;14.10;6.00;;;25.80;99.90;;;;;;5136045;27;20192;-77
2023/06/22 07:48:44;;;;;;;10.47;6.63;;;25.80;99.90;;;;;;5155354;27;20212;-77
2023/06/22 07:51:13;;;;;;;14.00;6.50;;;25.80;99.90;;;;;;5118901;27;20277;-77
2023/06/22 07:53:42;;;;;;;11.57;6.50;;;25.90;99.90;;;;;;5136628;27;20298;-78
2023/06/22 07:56:10;;;;;;;10.47;5.87;;;25.90;99.90;;;;;;5136269;27;20953;-77
2023/06/22 07:58:36;;;;;;;11.07;6.50;;;26.10;99.90;;;;;;5119056;27;21377;-78
2023/06/22 08:01:03;;;;;;;13.20;6.60;;;26.30;99.90;;;;;;5155343;27;20517;-78
2023/06/22 08:03:29;;;;;;;11.37;6.23;;;26.40;99.90;;;;;;5155183;27;20214;-77
2023/06/22 08:05:55;;;;;;;15.70;6.17;;;26.40;99.90;;;;;;5155388;27;20862;-77
2023/06/22 08:08:20;;;;;;;12.07;6.47;;;26.50;99.90;;;;;;5136226;27;20188;-77
2023/06/22 08:10:46;;;;;;;11.50;6.37;;;26.50;99.90;;;;;;5154417;27;20425;-77
2023/06/22 08:13:12;;;;;;;11.77;6.93;;;26.70;99.90;;;;;;5153223;27;20673;-78
2023/06/22 08:15:37;;;;;;;10.30;6.70;;;26.90;99.90;;;;;;5154140;27;20184;-77
2023/06/22 08:18:03;;;;;;;10.83;6.80;;;27.00;99.90;;;;;;5153518;27;20180;-75
2023/06/22 08:20:29;;;;;;;12.83;6.57;;;27.10;99.90;;;;;;5119729;27;20204;-76
2023/06/22 08:22:57;;;;;;;14.03;7.03;;;27.10;99.90;;;;;;5152453;27;20184;-76
2023/06/22 08:25:23;;;;;;;19.37;7.80;;;27.20;99.90;;;;;;5133882;27;20864;-77
2023/06/22 08:27:49;;;;;;;18.57;7.10;;;27.40;99.90;;;;;;5152118;27;20484;-76
2023/06/22 08:30:15;;;;;;;17.60;6.80;;;27.40;99.90;;;;;;5152222;27;20231;-76
2023/06/22 08:32:41;;;;;;;12.63;7.43;;;27.50;99.90;;;;;;5133198;27;20215;-76
2023/06/22 08:35:08;;;;;;;13.30;7.00;;;27.70;99.90;;;;;;5133507;27;20417;-76
2023/06/22 08:37:35;;;;;;;11.03;6.70;;;27.80;99.90;;;;;;5152235;27;20177;-78
2023/06/22 08:40:05;;;;;;;9.67;6.20;;;27.90;99.90;;;;;;5133285;27;20458;-76
2023/06/22 08:42:31;;;;;;;11.70;6.97;;;28.00;99.90;;;;;;5116131;27;20430;-76
2023/06/22 08:44:57;;;;;;;12.57;7.07;;;28.10;99.90;;;;;;5133206;27;20449;-77
2023/06/22 08:47:22;;;;;;;10.77;6.30;;;28.10;99.90;;;;;;5115889;27;20279;-77
2023/06/22 08:49:49;;;;;;;19.17;7.67;;;28.10;99.90;;;;;;5117269;27;20204;-79
2023/06/22 08:52:15;;;;;;;10.43;7.50;;;28.00;99.90;;;;;;5135780;27;20188;-79
2023/06/22 08:54:40;;;;;;;15.20;6.23;;;28.00;99.90;;;;;;5137195;27;20418;-77
2023/06/22 08:57:06;;;;;;;18.80;6.97;;;28.10;99.90;;;;;;5154570;27;20421;-77
2023/06/22 08:59:32;;;;;;;11.10;6.70;;;28.10;99.90;;;;;;5119152;27;20204;-78
2023/06/22 09:01:57;;;;;;;9.37;6.20;;;28.30;99.90;;;;;;5156783;27;20729;-77
2023/06/22 09:04:23;;;;;;;8.73;6.97;;;28.40;99.90;;;;;;5138250;27;20189;-78
2023/06/22 09:06:52;;;;;;;12.47;7.50;;;28.40;99.90;;;;;;5135409;27;20303;-78
2023/06/22 09:09:18;;;;;;;11.07;6.50;;;28.50;99.90;;;;;;5136632;27;20438;-77
2023/06/22 09:11:43;;;;;;;9.53;6.93;;;28.60;99.90;;;;;;5155455;27;20417;-77
2023/06/22 09:14:10;;;;;;;13.23;7.10;;;28.70;99.90;;;;;;5154935;27;20877;-77
2023/06/22 09:16:36;;;;;;;13.20;7.13;;;28.80;99.90;;;;;;5153043;27;20610;-76
2023/06/22 09:19:01;;;;;;;19.97;7.80;;;28.70;99.90;;;;;;5152630;27;20429;-77
2023/06/22 09:21:27;;;;;;;19.10;7.87;;;28.60;99.90;;;;;;5133506;27;20726;-75
2023/06/22 09:23:53;;;;;;;13.73;8.00;;;28.90;99.90;;;;;;5152010;27;20770;-76
2023/06/22 09:26:19;;;;;;;12.83;6.87;;;29.10;99.90;;;;;;5153920;27;20196;-78
2023/06/22 09:28:44;;;;;;;8.93;7.33;;;29.30;99.90;;;;;;5135278;27;20216;-76
2023/06/22 09:31:10;;;;;;;14.30;7.30;;;29.70;99.90;;;;;;5135870;27;20236;-78
2023/06/22 09:33:39;;;;;;;12.47;6.50;;;29.80;99.90;;;;;;5134766;27;20668;-76
2023/06/22 09:36:07;;;;;;;14.50;8.20;;;29.90;99.90;;;;;;5134579;27;20188;-77
2023/06/22 09:38:37;;;;;;;16.00;7.87;;;30.10;99.90;;;;;;5136467;27;20961;-77
2023/06/22 09:41:03;;;;;;;14.13;7.43;;;30.20;99.90;;;;;;5136619;27;20408;-78
2023/06/22 09:43:31;;;;;;;12.07;7.60;;;30.20;99.90;;;;;;5153775;27;20553;-77
2023/06/22 09:45:56;;;;;;;13.20;7.10;;;30.40;99.90;;;;;;5134821;27;20424;-78
2023/06/22 09:48:22;;;;;;;12.73;6.50;;;30.50;99.90;;;;;;5101748;27;20436;-77
2023/06/22 09:50:48;;;;;;;14.37;7.47;;;30.50;99.90;;;;;;5118454;27;20184;-77
2023/06/22 09:53:13;;;;;;;18.20;7.87;;;30.80;99.90;;;;;;5154479;27;20596;-79
2023/06/22 09:55:39;;;;;;;14.70;6.80;;;31.00;99.90;;;;;;5155952;27;20181;-78
2023/06/22 09:58:04;;;;;;;13.50;6.20;;;31.10;97.90;;;;;;5135896;27;20196;-78
2023/06/22 10:00:30;;;;;;;9.13;6.43;;;31.40;99.50;;;;;;5117980;27;20267;-78
2023/06/22 10:02:57;;;;;;;12.73;6.60;;;31.80;97.80;;;;;;5134186;27;20192;-78
2023/06/22 10:05:23;;;;;;;10.13;6.47;;;32.10;97.30;;;;;;5151621;27;20628;-77
2023/06/22 10:07:49;;;;;;;19.10;7.70;;;32.00;97.60;;;;;;5115310;27;20514;-78
2023/06/22 10:10:15;;;;;;;17.70;7.50;;;31.90;97.30;;;;;;5151441;27;20234;-77
2023/06/22 10:12:47;;;;;;;16.53;6.83;;;31.70;96.90;;;;;;5152650;27;20200;-77
2023/06/22 10:15:16;;;;;;;12.00;6.60;;;31.50;97.70;;;;;;5152310;27;20406;-77
2023/06/22 10:17:41;;;;;;;13.80;6.83;;;31.10;97.60;;;;;;5150660;27;20445;-68
2023/06/22 10:20:13;;;;;;;16.60;7.73;;;31.10;99.60;;;;;;5149628;27;20457;-68
2023/06/22 10:22:44;;;;;;;12.23;6.17;;;31.00;99.90;;;;;;5130634;27;20223;-69
2023/06/22 10:25:11;;;;;;;15.47;7.50;;;31.00;99.60;;;;;;5149934;27;20505;-69
2023/06/22 10:27:39;;;;;;;11.90;7.23;;;31.30;99.90;;;;;;5149987;27;20484;-69
2023/06/22 10:30:07;;;;;;;14.60;7.40;;;31.70;99.90;;;;;;5149892;27;21005;-69
2023/06/22 10:32:33;;;;;;;18.23;6.70;;;32.00;96.70;;;;;;5149772;27;20461;-68
2023/06/22 10:34:58;;;;;;;11.80;6.80;;;31.90;95.50;;;;;;5149945;27;20790;-69
2023/06/22 10:37:24;;;;;;;13.07;6.40;;;32.30;98.40;;;;;;5150161;27;20184;-68
2023/06/22 10:39:50;;;;;;;19.30;7.33;;;32.60;96.90;;;;;;5149992;27;20192;-68
2023/06/22 10:42:15;;;;;;;18.83;6.60;;;32.70;96.00;;;;;;5149726;27;20180;-68
2023/06/22 10:44:43;;;;;;;16.37;7.20;;;33.00;96.20;;;;;;5131063;27;20237;-69
2023/06/22 10:47:11;;;;;;;15.90;7.00;;;33.10;96.00;;;;;;5149663;27;20576;-68
2023/06/22 10:49:39;;;;;;;19.83;8.87;;;33.00;96.20;;;;;;5130787;27;20490;-68
2023/06/22 10:52:07;;;;;;;10.10;7.43;;;33.00;95.60;;;;;;5149862;27;20950;-69
2023/06/22 10:54:33;;;;;;;15.00;6.20;;;33.10;94.90;;;;;;5149711;27;20986;-69
2023/06/22 10:57:00;;;;;;;16.80;7.87;;;33.10;94.70;;;;;;5149187;27;20968;-68
2023/06/22 10:59:26;;;;;;;18.80;6.70;;;33.20;95.40;;;;;;5130065;27;20469;-69
2023/06/22 11:01:51;;;;;;;15.77;6.53;;;33.10;94.00;;;;;;5149564;27;20449;-74
2023/06/22 11:04:17;;;;;;;11.23;7.70;;;33.10;94.40;;;;;;5149624;27;21008;-75
2023/06/22 11:06:43;;;;;;;15.97;7.53;;;33.10;93.70;;;;;;5130279;27;20496;-69
2023/06/22 11:09:09;;;;;;;16.23;8.10;;;33.00;94.90;;;;;;5149411;27;20307;-69
2023/06/22 11:11:34;;;;;;;13.77;7.60;;;32.90;96.20;;;;;;5149338;27;20517;-69
2023/06/22 11:14:00;;;;;;;12.10;7.00;;;33.10;95.40;;;;;;5149616;27;20591;-69
2023/06/22 11:16:26;;;;;;;14.37;7.30;;;33.10;95.20;;;;;;5149326;27;20180;-69
2023/06/22 11:18:52;;;;;;;14.03;6.53;;;33.30;95.80;;;;;;5113604;27;20626;-69
2023/06/22 11:21:18;;;;;;;12.83;7.80;;;33.40;95.00;;;;;;5149189;27;20439;-70
2023/06/22 11:23:43;;;;;;;9.83;6.90;;;33.50;94.00;;;;;;5149502;27;20617;-69
2023/06/22 11:26:09;;;;;;;11.60;7.30;;;33.40;96.10;;;;;;5149406;27;20233;-69
2023/06/22 11:28:35;;;;;;;21.40;8.40;;;33.30;95.00;;;;;;5149307;27;20192;-69
2023/06/22 11:31:01;;;;;;;11.77;6.90;;;33.20;95.20;;;;;;5149158;27;20183;-69
2023/06/22 11:33:27;;;;;;;20.53;7.53;;;33.10;95.40;;;;;;5149083;27;20207;-69
2023/06/22 11:35:53;;;;;;;15.37;6.73;;;33.10;93.20;;;;;;5130195;27;20418;-69
2023/06/22 11:38:19;;;;;;;16.87;8.63;;;32.90;94.20;;;;;;5148848;27;20668;-69
2023/06/22 11:40:45;;;;;;;18.37;7.70;;;32.80;95.40;;;;;;5129630;27;20410;-69
2023/06/22 11:43:10;;;;;;;14.93;7.83;;;32.60;97.40;;;;;;5129984;27;20257;-69
2023/06/22 11:45:36;;;;;;;12.97;6.40;;;32.60;95.30;;;;;;5130264;27;20417;-68
2023/06/22 11:48:02;;;;;;;19.00;8.37;;;32.40;96.00;;;;;;5148750;27;20209;-68
2023/06/22 11:50:29;;;;;;;21.10;8.27;;;32.10;95.90;;;;;;5148893;27;20287;-69
2023/06/22 11:52:55;;;;;;;12.87;7.07;;;31.90;98.20;;;;;;5148895;27;20315;-69
2023/06/22 11:55:21;;;;;;;13.40;7.57;;;31.80;99.40;;;;;;5148861;27;20903;-69
2023/06/22 11:57:55;;;;;;;12.50;7.27;;;31.70;98.80;;;;;;5130090;27;20181;-69
2023/06/22 12:00:23;;;;;;;16.07;8.40;;;31.80;98.60;;;;;;5129843;27;20598;-69
2023/06/22 12:02:51;;;;;;;15.83;7.43;;;31.90;97.70;;;;;;5147896;27;20907;-69
2023/06/22 12:05:17;;;;;;;16.17;7.70;;;32.20;98.60;;;;;;5148223;27;20418;-68
2023/06/22 12:07:43;;;;;;;17.23;7.67;;;32.70;96.90;;;;;;5148175;27;20405;-69
2023/06/22 12:10:09;;;;;;;10.50;7.43;;;32.80;96.20;;;;;;5148032;27;20491;-69
2023/06/22 12:12:35;;;;;;;13.87;6.67;;;33.00;95.50;;;;;;5148015;27;20215;-69
2023/06/22 12:15:03;;;;;;;26.63;8.40;;;33.10;96.10;;;;;;5147970;27;20441;-68
2023/06/22 12:17:29;;;;;;;17.27;7.77;;;32.90;97.00;;;;;;5148223;27;20187;-69
2023/06/22 12:19:55;;;;;;;16.17;7.70;;;32.80;96.60;;;;;;5151844;27;21049;-70
2023/06/22 12:22:20;;;;;;;14.73;7.90;;;32.70;96.50;;;;;;5151640;27;20509;-69
2023/06/22 12:24:46;;;;;;;18.30;8.23;;;32.40;97.50;;;;;;5151713;27;20177;-69
2023/06/22 12:27:12;;;;;;;16.57;8.20;;;32.20;97.00;;;;;;5151641;27;20226;-68
2023/06/22 12:29:37;;;;;;;18.97;8.47;;;32.00;96.80;;;;;;5151631;27;20878;-68
2023/06/22 12:32:03;;;;;;;12.97;7.27;;;31.80;98.90;;;;;;5133587;27;20544;-68
2023/06/22 12:34:29;;;;;;;12.17;7.30;;;31.70;99.30;;;;;;5152365;27;20705;-68